Time;durP1;ratioP1;P1;durP2;ratioP2;P2;SDS_P1;SDS_P2;PMS_P1;PMS_P2;Temp;Humidity;BMP_temperature;BMP_pressure;BME280_temperature;BME280_humidity;BME280_pressure;Samples;Min_cycle;Max_cycle;Signal;HPM_P1;HPM_P2
2023/05/08 00:00:23;;;;;;;;;;;;;;;21.50;30.17;98213.00;5014815;28;1272;-75
2023/05/08 00:02:49;;;;;;;;;;;;;;;21.63;30.13;98216.75;5029306;28;923;-75
2023/05/08 00:05:14;;;;;;;;;;;;;;;22.04;29.90;98224.66;5034752;28;1144;-75
2023/05/08 00:07:40;;;;;;;;;;;;;;;22.19;29.65;98225.16;5035050;28;921;-75
2023/05/08 00:10:06;;;;;;;;;;;;;;;21.97;29.81;98218.41;5034200;28;927;-75
2023/05/08 00:12:32;;;;;;;;;;;;;;;21.70;30.02;98215.78;5000987;28;1131;-75
2023/05/08 00:14:57;;;;;;;;;;;;;;;21.39;30.21;98224.56;5017995;28;1647;-76
2023/05/08 00:17:23;;;;;;;;;;;;;;;21.51;30.36;98225.94;5018300;28;1910;-75
2023/05/08 00:19:49;;;;;;;;;;;;;;;21.67;30.06;98223.16;5034490;28;1067;-75
2023/05/08 00:22:14;;;;;;;;;;;;;;;21.54;30.37;98225.06;5034533;28;991;-75
2023/05/08 00:24:40;;;;;;;;;;;;;;;21.31;30.65;98221.13;5023109;28;946;-76
2023/05/08 00:27:07;;;;;;;;;;;;;;;21.29;30.62;98222.75;5018110;28;944;-75
2023/05/08 00:29:33;;;;;;;;;;;;;;;21.45;30.49;98222.84;5001640;28;1100;-75
2023/05/08 00:31:58;;;;;;;;;;;;;;;21.57;30.21;98232.69;5059373;28;1010;-75
2023/05/08 00:34:24;;;;;;;;;;;;;;;21.28;30.75;98230.44;5075103;28;999;-75
2023/05/08 00:36:49;;;;;;;;;;;;;;;21.55;30.39;98232.31;5037063;28;1973;-75
2023/05/08 00:39:15;;;;;;;;;;;;;;;22.17;29.43;98227.59;5054103;28;916;-75
2023/05/08 00:41:41;;;;;;;;;;;;;;;22.32;29.46;98228.84;5004424;28;1126;-75
2023/05/08 00:44:07;;;;;;;;;;;;;;;22.08;29.54;98228.22;5004821;28;1248;-76
2023/05/08 00:46:32;;;;;;;;;;;;;;;21.51;30.10;98225.94;5037489;28;947;-75
2023/05/08 00:48:58;;;;;;;;;;;;;;;21.47;30.10;98225.22;5020984;28;1107;-75
2023/05/08 00:51:24;;;;;;;;;;;;;;;21.66;29.47;98227.22;5020807;28;1578;-76
2023/05/08 00:53:49;;;;;;;;;;;;;;;21.40;30.15;98225.38;5037205;28;956;-75
2023/05/08 00:56:15;;;;;;;;;;;;;;;21.47;30.03;98225.22;5020697;28;1906;-75
2023/05/08 00:58:41;;;;;;;;;;;;;;;21.02;30.77;98225.75;5004391;28;1172;-75
2023/05/08 01:01:07;;;;;;;;;;;;;;;21.44;30.29;98214.78;5037217;28;1189;-75
2023/05/08 01:03:33;;;;;;;;;;;;;;;21.42;30.41;98218.06;5020437;28;1130;-76
2023/05/08 01:05:58;;;;;;;;;;;;;;;21.62;30.35;98226.50;5037347;28;966;-75
2023/05/08 01:08:24;;;;;;;;;;;;;;;21.30;30.61;98216.69;5046439;28;938;-75
2023/05/08 01:10:55;;;;;;;;;;;;;;;21.54;30.37;98223.03;5056996;28;1273;-75
2023/05/08 01:13:28;;;;;;;;;;;;;;;21.51;30.50;98221.09;5073971;28;970;-75
2023/05/08 01:15:56;;;;;;;;;;;;;;;21.50;30.34;98216.66;5056950;28;1038;-75
2023/05/08 01:18:26;;;;;;;;;;;;;;;21.40;30.37;98214.06;5040145;28;1971;-76
2023/05/08 01:20:58;;;;;;;;;;;;;;;21.66;30.13;98204.56;5023845;28;1318;-76
2023/05/08 01:23:24;;;;;;;;;;;;;;;21.32;30.78;98205.72;5073312;28;1019;-75
2023/05/08 01:25:58;;;;;;;;;;;;;;;21.28;30.49;98198.50;5060532;28;1212;-75
2023/05/08 01:28:32;;;;;;;;;;;;;;;21.83;30.11;98192.00;5020774;28;999;-75
2023/05/08 01:30:59;;;;;;;;;;;;;;;22.20;29.66;98204.06;5020967;28;1163;-75
2023/05/08 01:33:35;;;;;;;;;;;;;;;22.01;29.67;98196.41;4988313;28;1163;-75
2023/05/08 01:36:21;;;;;;;;;;;;;;;21.72;29.90;98197.13;5020899;28;1977;-75
2023/05/08 01:38:52;;;;;;;;;;;;;;;21.69;30.00;98198.00;5042054;28;1098;-75
2023/05/08 01:41:24;;;;;;;;;;;;;;;21.33;30.46;98195.19;5023996;28;1279;-75
2023/05/08 01:43:49;;;;;;;;;;;;;;;21.19;30.58;98204.78;5020693;28;1305;-75
2023/05/08 01:46:25;;;;;;;;;;;;;;;21.76;30.51;98197.03;5037070;28;1026;-75
2023/05/08 01:48:53;;;;;;;;;;;;;;;22.28;29.30;98199.81;5020507;28;925;-75
2023/05/08 01:51:20;;;;;;;;;;;;;;;22.00;29.73;98200.50;5020857;28;1019;-75
2023/05/08 01:53:54;;;;;;;;;;;;;;;21.56;30.14;98200.75;5003931;28;1210;-76
2023/05/08 01:56:21;;;;;;;;;;;;;;;21.53;30.22;98192.31;5020344;28;1906;-75
2023/05/08 01:58:47;;;;;;;;;;;;;;;21.43;30.06;98196.19;5028885;28;1124;-75
2023/05/08 02:01:13;;;;;;;;;;;;;;;21.89;29.78;98197.94;5043898;28;1153;-75
2023/05/08 02:03:40;;;;;;;;;;;;;;;21.47;30.07;98199.75;5059973;28;1148;-76
2023/05/08 02:06:06;;;;;;;;;;;;;;;21.60;30.19;98200.63;5043442;28;960;-75
2023/05/08 02:08:31;;;;;;;;;;;;;;;21.57;29.97;98198.72;5060199;28;987;-75
2023/05/08 02:10:57;;;;;;;;;;;;;;;21.73;29.62;98190.22;5059982;28;1129;-75
2023/05/08 02:13:23;;;;;;;;;;;;;;;21.65;30.10;98191.63;5059994;28;1263;-75
2023/05/08 02:15:49;;;;;;;;;;;;;;;21.69;30.03;98191.53;5044525;28;1160;-75
2023/05/08 02:18:14;;;;;;;;;;;;;;;21.60;30.09;98194.97;5061106;28;1981;-75
2023/05/08 02:20:40;;;;;;;;;;;;;;;21.48;30.06;98193.63;5078020;28;939;-75
2023/05/08 02:23:06;;;;;;;;;;;;;;;21.29;30.40;98203.72;5023094;28;1179;-75
2023/05/08 02:25:31;;;;;;;;;;;;;;;21.78;30.19;98200.22;5023340;28;1119;-76
2023/05/08 02:27:57;;;;;;;;;;;;;;;22.27;29.51;98198.19;5056369;28;991;-75
2023/05/08 02:30:23;;;;;;;;;;;;;;;22.28;29.26;98201.84;5023537;28;1063;-75
2023/05/08 02:32:49;;;;;;;;;;;;;;;21.77;29.85;98199.44;5023457;28;1250;-75
2023/05/08 02:35:15;;;;;;;;;;;;;;;21.46;30.41;98201.00;5038944;28;990;-76
2023/05/08 02:37:45;;;;;;;;;;;;;;;21.59;29.96;98193.38;5007022;28;1972;-75
2023/05/08 02:40:11;;;;;;;;;;;;;;;21.51;29.80;98197.63;5023022;28;1143;-75
2023/05/08 02:42:37;;;;;;;;;;;;;;;21.51;29.89;98186.31;5039534;28;1248;-75
2023/05/08 02:45:03;;;;;;;;;;;;;;;21.20;30.51;98195.06;5022994;28;1179;-75
2023/05/08 02:47:31;;;;;;;;;;;;;;;21.55;30.18;98192.66;5006841;28;1442;-77
2023/05/08 02:50:02;;;;;;;;;;;;;;;21.32;30.34;98194.41;5006573;28;1166;-75
2023/05/08 02:52:29;;;;;;;;;;;;;;;21.34;30.70;98188.28;5039147;28;907;-75
2023/05/08 02:55:03;;;;;;;;;;;;;;;21.46;30.34;98184.00;5073337;28;963;-75
2023/05/08 02:57:47;;;;;;;;;;;;;;;21.65;30.79;98177.47;5072503;28;1886;-76
2023/05/08 03:00:13;;;;;;;;;;;;;;;22.16;29.70;98179.88;5055553;28;1089;-76
2023/05/08 03:02:42;;;;;;;;;;;;;;;21.98;29.55;98180.31;5056044;28;952;-75
2023/05/08 03:05:15;;;;;;;;;;;;;;;21.68;30.25;98173.75;4980235;28;1230;-75
2023/05/08 03:07:41;;;;;;;;;;;;;;;21.67;30.18;98194.81;4980340;28;1151;-76
2023/05/08 03:10:09;;;;;;;;;;;;;;;21.50;30.01;98184.69;4980084;28;1146;-75
2023/05/08 03:12:35;;;;;;;;;;;;;;;21.45;30.38;98188.06;4980042;28;1271;-76
2023/05/08 03:15:25;;;;;;;;;;;;;;;21.33;30.58;98195.19;4996272;28;1246;-75
2023/05/08 03:17:55;;;;;;;;;;;;;;;21.27;30.76;98194.09;4979822;28;1910;-75
2023/05/08 03:20:20;;;;;;;;;;;;;;;21.23;30.72;98199.81;4963970;28;1230;-75
2023/05/08 03:22:47;;;;;;;;;;;;;;;21.39;30.56;98196.28;4963625;28;1273;-76
2023/05/08 03:25:13;;;;;;;;;;;;;;;21.49;30.26;98205.75;4964002;28;1112;-76
2023/05/08 03:27:39;;;;;;;;;;;;;;;22.06;29.87;98213.69;4966575;28;1507;-75
2023/05/08 03:30:06;;;;;;;;;;;;;;;21.94;30.17;98207.94;5015604;28;1025;-76
2023/05/08 03:32:35;;;;;;;;;;;;;;;21.83;29.78;98213.88;5015545;28;1294;-75
2023/05/08 03:35:01;;;;;;;;;;;;;;;21.78;29.75;98203.84;5015322;28;1438;-76
2023/05/08 03:37:27;;;;;;;;;;;;;;;21.42;30.36;98200.28;4995883;28;1963;-75
2023/05/08 03:39:53;;;;;;;;;;;;;;;21.61;29.86;98213.59;4996023;28;1130;-75
2023/05/08 03:42:21;;;;;;;;;;;;;;;21.59;29.81;98210.38;4979284;28;1121;-76
2023/05/08 03:44:48;;;;;;;;;;;;;;;21.55;30.11;98210.47;4996072;28;1115;-75
2023/05/08 03:47:14;;;;;;;;;;;;;;;21.65;29.91;98214.28;4998036;28;1142;-76
2023/05/08 03:49:39;;;;;;;;;;;;;;;21.75;29.67;98215.25;4998864;28;1032;-75
2023/05/08 03:52:05;;;;;;;;;;;;;;;21.58;30.40;98217.28;4998752;28;1232;-75
2023/05/08 03:54:31;;;;;;;;;;;;;;;21.54;30.17;98217.34;5015183;28;1480;-75
2023/05/08 03:56:57;;;;;;;;;;;;;;;21.70;30.20;98215.78;4998880;28;1902;-75
2023/05/08 03:59:32;;;;;;;;;;;;;;;21.83;30.01;98220.31;5046886;28;1534;-76
2023/05/08 04:02:00;;;;;;;;;;;;;;;21.58;30.44;98220.13;5051335;28;1266;-75
2023/05/08 04:04:29;;;;;;;;;;;;;;;21.61;30.46;98224.91;5018261;28;1193;-77
2023/05/08 04:06:55;;;;;;;;;;;;;;;21.39;30.82;98227.41;5011563;28;1834;-75
2023/05/08 04:09:31;;;;;;;;;;;;;;;21.42;30.55;98229.38;4995297;28;1325;-76
2023/05/08 04:12:16;;;;;;;;;;;;;;;21.26;30.88;98221.59;4994482;28;1273;-75
2023/05/08 04:14:44;;;;;;;;;;;;;;;21.59;30.15;98227.38;5003186;28;1509;-76
2023/05/08 04:17:11;;;;;;;;;;;;;;;21.54;30.39;98225.06;4998363;28;1906;-76
2023/05/08 04:19:38;;;;;;;;;;;;;;;21.38;30.79;98222.19;4982273;28;1134;-75
2023/05/08 04:22:05;;;;;;;;;;;;;;;22.04;29.77;98223.88;4998030;28;1223;-76
2023/05/08 04:24:31;;;;;;;;;;;;;;;22.10;29.68;98213.59;4998247;28;985;-76
2023/05/08 04:26:56;;;;;;;;;;;;;;;22.13;29.39;98220.47;4982436;28;1206;-76
2023/05/08 04:29:22;;;;;;;;;;;;;;;21.63;29.88;98218.81;4998152;28;1170;-76
2023/05/08 04:31:49;;;;;;;;;;;;;;;21.47;29.93;98208.25;4997930;28;1008;-76
2023/05/08 04:34:16;;;;;;;;;;;;;;;21.49;30.23;98211.41;4997887;28;1214;-75
2023/05/08 04:36:41;;;;;;;;;;;;;;;21.63;30.33;98216.75;4998046;28;1981;-75
2023/05/08 04:39:08;;;;;;;;;;;;;;;21.97;29.86;98215.56;5017348;28;1327;-75
2023/05/08 04:41:34;;;;;;;;;;;;;;;22.01;29.69;98208.53;5017733;28;1191;-76
2023/05/08 04:44:00;;;;;;;;;;;;;;;21.94;29.35;98225.72;5019617;28;1169;-75
2023/05/08 04:46:26;;;;;;;;;;;;;;;21.45;30.26;98230.50;5029152;28;1044;-75
2023/05/08 04:48:53;;;;;;;;;;;;;;;21.50;30.14;98221.50;5037240;28;1288;-76
2023/05/08 04:51:19;;;;;;;;;;;;;;;21.29;30.21;98217.88;5057092;28;977;-76
2023/05/08 04:53:45;;;;;;;;;;;;;;;21.42;29.89;98217.25;5057291;28;1248;-76
2023/05/08 04:56:30;;;;;;;;;;;;;;;21.36;29.88;98224.69;5033806;28;1971;-76
2023/05/08 04:58:56;;;;;;;;;;;;;;;21.33;29.99;98227.13;5017206;28;1214;-75
2023/05/08 05:01:22;;;;;;;;;;;;;;;22.03;29.39;98231.59;5011532;28;1289;-76
2023/05/08 05:03:47;;;;;;;;;;;;;;;22.24;29.02;98224.63;5005917;28;1554;-75
2023/05/08 05:06:13;;;;;;;;;;;;;;;22.13;28.75;98226.94;5006120;28;1502;-75
2023/05/08 05:08:39;;;;;;;;;;;;;;;21.78;29.12;98217.22;5009521;28;1510;-76
2023/05/08 05:11:05;;;;;;;;;;;;;;;21.37;29.71;98215.75;5007768;28;1463;-75
2023/05/08 05:13:31;;;;;;;;;;;;;;;21.51;29.34;98215.44;5008253;28;1613;-75
2023/05/08 05:15:58;;;;;;;;;;;;;;;21.39;29.75;98213.25;5024546;28;1625;-76
2023/05/08 05:18:23;;;;;;;;;;;;;;;21.53;29.37;98217.81;5004804;28;1902;-75
2023/05/08 05:20:51;;;;;;;;;;;;;;;22.06;28.90;98216.50;5006228;28;1588;-77
2023/05/08 05:23:17;;;;;;;;;;;;;;;22.06;28.83;98219.34;4995841;28;1514;-75
2023/05/08 05:25:43;;;;;;;;;;;;;;;22.20;28.31;98215.41;5000903;28;1278;-76
2023/05/08 05:28:08;;;;;;;;;;;;;;;21.59;29.41;98221.72;5047843;28;1228;-76
2023/05/08 05:30:34;;;;;;;;;;;;;;;21.16;30.12;98216.19;5053671;28;1292;-76
2023/05/08 05:33:00;;;;;;;;;;;;;;;21.49;29.11;98222.75;5054529;28;1157;-75
2023/05/08 05:35:26;;;;;;;;;;;;;;;21.27;29.50;98223.19;5054500;28;1098;-76
2023/05/08 05:37:53;;;;;;;;;;;;;;;21.55;29.15;98221.81;5088224;28;1910;-75
2023/05/08 05:40:19;;;;;;;;;;;;;;;21.31;29.48;98226.78;5071173;28;1248;-76
2023/05/08 05:42:49;;;;;;;;;;;;;;;21.45;29.64;98224.84;5054710;28;1595;-77
2023/05/08 05:45:14;;;;;;;;;;;;;;;21.90;28.82;98221.38;5070994;28;1371;-75
2023/05/08 05:47:49;;;;;;;;;;;;;;;21.91;28.93;98225.81;5071174;28;1426;-75
2023/05/08 05:50:17;;;;;;;;;;;;;;;21.85;28.70;98226.34;5086942;28;865;-75
2023/05/08 05:52:43;;;;;;;;;;;;;;;21.61;28.97;98218.47;5071030;28;1189;-75
2023/05/08 05:55:09;;;;;;;;;;;;;;;21.57;29.03;98224.19;5070918;28;1145;-75
2023/05/08 05:57:35;;;;;;;;;;;;;;;21.14;29.69;98219.44;5071105;28;1905;-74
2023/05/08 06:00:01;;;;;;;;;;;;;;;21.22;29.68;98220.09;5071430;28;1235;-75
2023/05/08 06:02:28;;;;;;;;;;;;;;;21.62;29.38;98232.16;5070992;28;1184;-76
2023/05/08 06:04:53;;;;;;;;;;;;;;;22.12;28.29;98230.97;5087771;28;845;-75
2023/05/08 06:07:20;;;;;;;;;;;;;;;21.93;28.87;98240.34;5054183;28;914;-76
2023/05/08 06:09:46;;;;;;;;;;;;;;;21.89;28.76;98242.47;5054149;28;877;-76
2023/05/08 06:12:11;;;;;;;;;;;;;;;21.67;28.98;98245.00;5074753;28;1095;-76
2023/05/08 06:14:37;;;;;;;;;;;;;;;21.54;29.31;98244.88;5074350;28;977;-75
2023/05/08 06:17:03;;;;;;;;;;;;;;;21.42;29.12;98242.72;5057750;28;1976;-76
2023/05/08 06:19:29;;;;;;;;;;;;;;;21.21;29.67;98239.09;5057916;28;1112;-76
2023/05/08 06:21:55;;;;;;;;;;;;;;;21.27;29.40;98245.84;5091491;28;946;-76
2023/05/08 06:24:21;;;;;;;;;;;;;;;21.42;29.40;98246.34;5058698;28;1054;-76
2023/05/08 06:26:46;;;;;;;;;;;;;;;21.42;29.15;98246.34;5057496;28;1272;-75
2023/05/08 06:29:12;;;;;;;;;;;;;;;21.31;29.31;98235.28;5090304;28;1009;-76
2023/05/08 06:31:37;;;;;;;;;;;;;;;21.24;29.40;98240.25;5091041;28;940;-76
2023/05/08 06:34:03;;;;;;;;;;;;;;;21.40;29.01;98242.34;5091509;28;895;-76
2023/05/08 06:36:29;;;;;;;;;;;;;;;21.46;29.33;98246.28;5091297;28;1906;-75
2023/05/08 06:38:55;;;;;;;;;;;;;;;22.05;28.34;98243.25;5058389;28;897;-76
2023/05/08 06:41:21;;;;;;;;;;;;;;;22.09;28.42;98243.19;5091209;28;884;-75
2023/05/08 06:43:47;;;;;;;;;;;;;;;22.14;28.24;98251.19;5057190;28;1157;-76
2023/05/08 06:46:12;;;;;;;;;;;;;;;21.65;29.05;98242.59;5057542;28;1024;-76
2023/05/08 06:48:38;;;;;;;;;;;;;;;21.53;28.87;98246.13;5058294;28;993;-76
2023/05/08 06:51:03;;;;;;;;;;;;;;;21.30;29.37;98245.00;5090946;28;920;-76
2023/05/08 06:53:29;;;;;;;;;;;;;;;21.38;28.89;98242.00;5058118;28;922;-75
2023/05/08 06:55:57;;;;;;;;;;;;;;;21.50;28.90;98246.97;5096125;28;1195;-76
2023/05/08 06:58:23;;;;;;;;;;;;;;;21.39;29.55;98241.56;5079506;28;1910;-75
2023/05/08 07:00:48;;;;;;;;;;;;;;;21.86;28.42;98246.97;5096344;28;883;-76
2023/05/08 07:03:15;;;;;;;;;;;;;;;21.95;28.51;98233.00;5062694;28;1133;-76
2023/05/08 07:05:40;;;;;;;;;;;;;;;21.62;28.87;98235.00;5062724;28;1015;-76
2023/05/08 07:08:06;;;;;;;;;;;;;;;21.68;28.84;98230.41;5079258;28;1165;-76
2023/05/08 07:10:31;;;;;;;;;;;;;;;21.27;29.41;98231.69;5078867;28;1150;-76
2023/05/08 07:12:57;;;;;;;;;;;;;;;21.39;29.25;98232.28;5058467;28;1293;-76
2023/05/08 07:15:23;;;;;;;;;;;;;;;21.23;29.43;98222.47;5075830;28;1328;-76
2023/05/08 07:17:48;;;;;;;;;;;;;;;21.16;29.55;98236.78;5058788;28;1921;-76
2023/05/08 07:20:14;;;;;;;;;;;;;;;21.49;29.31;98239.72;5075360;28;1044;-75
2023/05/08 07:22:40;;;;;;;;;;;;;;;22.10;28.09;98241.94;5075142;28;1115;-76
2023/05/08 07:25:06;;;;;;;;;;;;;;;22.35;27.57;98247.81;5075603;28;988;-76
2023/05/08 07:27:31;;;;;;;;;;;;;;;21.90;28.46;98241.22;5048329;28;968;-76
2023/05/08 07:30:02;;;;;;;;;;;;;;;21.98;28.01;98231.31;5055383;28;1393;-76
2023/05/08 07:32:29;;;;;;;;;;;;;;;21.55;28.67;98246.47;5055464;28;1181;-76
2023/05/08 07:34:55;;;;;;;;;;;;;;;21.14;29.28;98253.41;5055581;28;1131;-76
2023/05/08 07:37:21;;;;;;;;;;;;;;;21.27;29.37;98251.50;5038600;28;1977;-75
2023/05/08 07:39:46;;;;;;;;;;;;;;;21.40;29.19;98254.50;5038734;28;1076;-76
2023/05/08 07:42:12;;;;;;;;;;;;;;;21.43;28.91;98249.97;5038277;28;1281;-75
2023/05/08 07:44:38;;;;;;;;;;;;;;;21.42;29.38;98256.88;5051644;28;846;-76
2023/05/08 07:47:04;;;;;;;;;;;;;;;22.11;28.26;98260.56;5073074;28;1161;-76
2023/05/08 07:49:29;;;;;;;;;;;;;;;22.05;28.27;98253.81;5055958;28;1233;-76
2023/05/08 07:51:55;;;;;;;;;;;;;;;21.65;28.66;98259.59;5057455;28;956;-76
2023/05/08 07:54:20;;;;;;;;;;;;;;;21.22;29.60;98260.50;5056333;28;923;-76
2023/05/08 07:56:46;;;;;;;;;;;;;;;21.49;28.95;98254.69;5057243;28;1997;-76
2023/05/08 07:59:12;;;;;;;;;;;;;;;21.54;28.64;98247.72;5089628;28;1055;-76
2023/05/08 08:01:38;;;;;;;;;;;;;;;21.44;29.03;98243.09;5089413;28;850;-76
2023/05/08 08:04:04;;;;;;;;;;;;;;;21.24;29.04;98243.06;5094607;28;1070;-76
2023/05/08 08:06:30;;;;;;;;;;;;;;;21.34;29.00;98239.25;5061324;28;1227;-76
2023/05/08 08:08:56;;;;;;;;;;;;;;;21.59;29.02;98239.50;5078072;28;919;-76
2023/05/08 08:11:22;;;;;;;;;;;;;;;22.01;28.08;98239.72;5077498;28;1265;-76
2023/05/08 08:13:47;;;;;;;;;;;;;;;21.69;28.82;98236.84;5037596;28;1052;-74
2023/05/08 08:16:13;;;;;;;;;;;;;;;21.49;28.97;98234.88;5021320;28;993;-75
2023/05/08 08:18:38;;;;;;;;;;;;;;;21.46;28.82;98240.63;5054456;28;1965;-75
2023/05/08 08:21:06;;;;;;;;;;;;;;;21.32;29.12;98242.53;5021613;28;1070;-75
2023/05/08 08:23:32;;;;;;;;;;;;;;;21.54;28.80;98236.38;5037385;28;941;-76
2023/05/08 08:25:57;;;;;;;;;;;;;;;21.45;28.91;98224.84;5021149;28;1107;-74
2023/05/08 08:28:23;;;;;;;;;;;;;;;21.37;29.10;98231.94;5054010;28;1031;-75
2023/05/08 08:30:48;;;;;;;;;;;;;;;21.31;29.03;98228.81;5053840;28;1127;-74
2023/05/08 08:33:14;;;;;;;;;;;;;;;22.14;28.19;98216.38;5053441;28;1228;-74
2023/05/08 08:35:39;;;;;;;;;;;;;;;22.30;27.67;98225.66;5018910;28;1129;-75
2023/05/08 08:38:05;;;;;;;;;;;;;;;21.79;28.34;98222.44;5013783;28;1968;-75
2023/05/08 08:40:31;;;;;;;;;;;;;;;21.32;29.24;98217.03;5014033;28;966;-75
2023/05/08 08:42:56;;;;;;;;;;;;;;;21.62;28.58;98225.72;5014054;28;1118;-75
2023/05/08 08:45:22;;;;;;;;;;;;;;;21.38;28.94;98222.19;5026744;28;1659;-75
2023/05/08 08:47:48;;;;;;;;;;;;;;;21.44;29.05;98220.44;5016959;28;1768;-75
2023/05/08 08:50:14;;;;;;;;;;;;;;;21.44;28.72;98215.56;5037024;28;1454;-75
2023/05/08 08:52:42;;;;;;;;;;;;;;;21.83;28.39;98226.00;5056808;28;1507;-75
2023/05/08 08:55:09;;;;;;;;;;;;;;;21.91;28.41;98220.16;5040431;28;1132;-74
2023/05/08 08:57:35;;;;;;;;;;;;;;;22.03;28.19;98219.47;5040558;28;1879;-75
2023/05/08 09:00:03;;;;;;;;;;;;;;;21.98;28.21;98214.31;5053244;28;1089;-75
2023/05/08 09:02:29;;;;;;;;;;;;;;;21.78;28.37;98215.19;5053104;28;907;-75
2023/05/08 09:04:54;;;;;;;;;;;;;;;21.49;29.01;98217.09;5036823;28;927;-76
2023/05/08 09:07:20;;;;;;;;;;;;;;;21.35;29.16;98204.06;5036910;28;1028;-75
2023/05/08 09:09:45;;;;;;;;;;;;;;;21.51;28.61;98204.09;5003982;28;1423;-75
2023/05/08 09:12:11;;;;;;;;;;;;;;;21.54;28.82;98196.75;5036590;28;1145;-74
2023/05/08 09:14:37;;;;;;;;;;;;;;;21.57;28.46;98204.38;4997296;28;1119;-75
2023/05/08 09:17:03;;;;;;;;;;;;;;;21.35;29.04;98211.72;4996866;28;1977;-75
2023/05/08 09:19:28;;;;;;;;;;;;;;;21.64;28.85;98218.34;4997548;28;1064;-75
2023/05/08 09:21:54;;;;;;;;;;;;;;;21.65;28.76;98219.94;4993850;28;959;-75
2023/05/08 09:24:19;;;;;;;;;;;;;;;21.91;28.28;98228.66;4961575;28;1667;-75
2023/05/08 09:26:45;;;;;;;;;;;;;;;21.87;27.97;98214.59;4994274;28;1003;-75
2023/05/08 09:29:17;;;;;;;;;;;;;;;21.68;28.38;98223.94;4993763;28;1218;-75
2023/05/08 09:31:46;;;;;;;;;;;;;;;21.31;28.61;98218.28;4977609;28;920;-75
2023/05/08 09:34:25;;;;;;;;;;;;;;;21.21;28.93;98219.28;4946034;28;1226;-76
2023/05/08 09:36:51;;;;;;;;;;;;;;;21.22;28.79;98220.88;4993671;28;1910;-75
2023/05/08 09:39:23;;;;;;;;;;;;;;;21.34;28.89;98216.59;4961806;28;956;-75
2023/05/08 09:41:58;;;;;;;;;;;;;;;21.46;28.76;98223.63;4970073;28;1713;-75
2023/05/08 09:44:24;;;;;;;;;;;;;;;22.27;27.62;98229.38;4974575;28;1602;-75
2023/05/08 09:46:49;;;;;;;;;;;;;;;22.19;27.88;98222.31;5026881;28;1534;-76
2023/05/08 09:49:18;;;;;;;;;;;;;;;21.78;28.09;98223.69;5022999;28;1521;-75
2023/05/08 09:51:53;;;;;;;;;;;;;;;21.36;28.95;98216.19;4998891;28;1530;-74
2023/05/08 09:54:18;;;;;;;;;;;;;;;21.29;28.84;98208.59;5034485;28;1459;-75
2023/05/08 09:56:44;;;;;;;;;;;;;;;21.51;28.55;98203.31;5018744;28;1971;-75
2023/05/08 09:59:23;;;;;;;;;;;;;;;21.49;28.43;98202.94;5026013;28;1502;-75
2023/05/08 10:01:48;;;;;;;;;;;;;;;21.12;29.29;98209.78;5075155;28;1455;-74
2023/05/08 10:04:14;;;;;;;;;;;;;;;21.18;29.23;98203.16;5059872;28;1710;-75
2023/05/08 10:06:39;;;;;;;;;;;;;;;21.03;29.41;98207.53;5077689;28;1465;-75
2023/05/08 10:09:12;;;;;;;;;;;;;;;21.47;28.85;98208.25;5057429;28;1549;-76
2023/05/08 10:11:42;;;;;;;;;;;;;;;22.22;27.70;98218.56;5096470;28;1554;-76
2023/05/08 10:14:08;;;;;;;;;;;;;;;22.01;28.11;98219.09;5098682;28;1459;-75
2023/05/08 10:16:43;;;;;;;;;;;;;;;21.59;28.72;98210.38;5083575;28;2126;-75
2023/05/08 10:19:11;;;;;;;;;;;;;;;21.22;28.85;98209.56;5077106;28;1554;-75
2023/05/08 10:21:36;;;;;;;;;;;;;;;21.44;28.72;98209.91;5041863;28;1486;-74
2023/05/08 10:24:03;;;;;;;;;;;;;;;21.38;28.80;98196.72;5109002;28;1574;-75
2023/05/08 10:26:30;;;;;;;;;;;;;;;21.22;28.86;98209.56;5079961;28;1028;-75
2023/05/08 10:28:56;;;;;;;;;;;;;;;21.61;28.81;98202.25;5063029;28;1168;-76
2023/05/08 10:31:25;;;;;;;;;;;;;;;21.57;28.60;98207.19;5079578;28;1595;-76
2023/05/08 10:33:51;;;;;;;;;;;;;;;22.39;27.64;98204.41;5089096;28;1552;-75
2023/05/08 10:36:17;;;;;;;;;;;;;;;22.17;27.84;98198.47;5087434;28;1713;-75
2023/05/08 10:38:43;;;;;;;;;;;;;;;21.92;27.98;98196.25;5088110;28;1918;-76
2023/05/08 10:41:09;;;;;;;;;;;;;;;21.41;28.91;98193.03;5078859;28;1534;-75
2023/05/08 10:43:35;;;;;;;;;;;;;;;21.17;29.48;98204.41;5107358;28;1731;-75
2023/05/08 10:46:01;;;;;;;;;;;;;;;21.31;28.79;98190.00;5098505;28;1581;-75
2023/05/08 10:48:27;;;;;;;;;;;;;;;21.27;28.98;98205.41;5106093;28;1499;-75
2023/05/08 10:51:04;;;;;;;;;;;;;;;21.32;29.14;98199.28;5110589;28;1488;-75
2023/05/08 10:53:48;;;;;;;;;;;;;;;21.61;28.61;98202.25;5099636;28;1273;-75
2023/05/08 10:56:13;;;;;;;;;;;;;;;21.97;28.45;98209.91;5059749;28;1244;-75
2023/05/08 10:58:39;;;;;;;;;;;;;;;22.15;27.85;98215.13;5110599;28;1913;-75
2023/05/08 11:01:08;;;;;;;;;;;;;;;21.64;28.58;98209.06;5110546;28;905;-76
2023/05/08 11:04:00;;;;;;;;;;;;;;;21.38;28.83;98205.22;5076671;28;1214;-75
2023/05/08 11:06:41;;;;;;;;;;;;;;;21.26;29.03;98204.63;5062349;28;1134;-75
2023/05/08 11:09:07;;;;;;;;;;;;;;;21.22;28.96;98203.91;5035273;28;928;-75
2023/05/08 11:11:36;;;;;;;;;;;;;;;21.08;29.25;98207.03;5002348;28;1250;-75
2023/05/08 11:14:09;;;;;;;;;;;;;;;21.69;28.72;98209.34;5002908;28;952;-75
2023/05/08 11:16:53;;;;;;;;;;;;;;;22.06;27.96;98216.50;5018847;28;1894;-75
2023/05/08 11:19:20;;;;;;;;;;;;;;;21.87;28.03;98216.63;5035376;28;1025;-75
2023/05/08 11:22:15;;;;;;;;;;;;;;;21.97;28.04;98212.72;5002909;28;1108;-75
2023/05/08 11:24:48;;;;;;;;;;;;;;;21.37;28.73;98214.94;4999121;28;1282;-75
2023/05/08 11:27:14;;;;;;;;;;;;;;;21.62;28.27;98218.00;5015508;28;1006;-74
2023/05/08 11:29:40;;;;;;;;;;;;;;;21.42;28.84;98222.91;5015078;28;1090;-75
2023/05/08 11:32:05;;;;;;;;;;;;;;;21.42;28.94;98214.44;5015559;28;1049;-75
2023/05/08 11:34:43;;;;;;;;;;;;;;;21.95;28.31;98220.88;5015400;28;1219;-76
2023/05/08 11:37:22;;;;;;;;;;;;;;;21.94;28.04;98219.28;4998569;28;1914;-75
2023/05/08 11:39:48;;;;;;;;;;;;;;;22.04;27.86;98224.66;5009315;28;998;-75
2023/05/08 11:42:26;;;;;;;;;;;;;;;21.62;28.35;98220.84;5051269;28;1118;-75
2023/05/08 11:45:07;;;;;;;;;;;;;;;21.26;28.73;98215.94;5015146;28;1072;-75
2023/05/08 11:47:37;;;;;;;;;;;;;;;21.23;29.04;98211.16;5014801;28;946;-75
2023/05/08 11:50:03;;;;;;;;;;;;;;;21.17;28.86;98207.25;5014762;28;1057;-74
2023/05/08 11:52:32;;;;;;;;;;;;;;;21.47;28.77;98209.03;5014910;28;1002;-75
2023/05/08 11:55:00;;;;;;;;;;;;;;;21.43;28.79;98213.19;5014740;28;1016;-74
2023/05/08 11:57:26;;;;;;;;;;;;;;;21.23;28.92;98216.81;5031060;28;1975;-75
2023/05/08 11:59:51;;;;;;;;;;;;;;;21.47;28.57;98216.75;5031276;28;1099;-75
2023/05/08 12:02:17;;;;;;;;;;;;;;;21.94;28.03;98220.06;5071155;28;960;-75
2023/05/08 12:04:45;;;;;;;;;;;;;;;22.17;27.71;98216.28;5054587;28;998;-75
2023/05/08 12:07:11;;;;;;;;;;;;;;;21.68;28.17;98213.41;5037569;28;1218;-75
2023/05/08 12:09:37;;;;;;;;;;;;;;;21.47;28.78;98213.91;5054025;28;1008;-75
2023/05/08 12:12:02;;;;;;;;;;;;;;;21.61;28.42;98207.13;5054182;28;1127;-76
2023/05/08 12:14:28;;;;;;;;;;;;;;;21.56;28.41;98211.28;5091234;28;1011;-76
2023/05/08 12:16:54;;;;;;;;;;;;;;;21.43;28.65;98218.84;5073918;28;1967;-76
2023/05/08 12:19:19;;;;;;;;;;;;;;;21.46;28.84;98212.31;5073782;28;958;-76
2023/05/08 12:21:47;;;;;;;;;;;;;;;21.77;28.34;98202.28;5057535;28;1213;-77
2023/05/08 12:24:15;;;;;;;;;;;;;;;21.81;28.25;98200.16;5037355;28;1655;-76
2023/05/08 12:26:40;;;;;;;;;;;;;;;21.74;27.94;98203.16;5041123;28;1183;-76
2023/05/08 12:29:07;;;;;;;;;;;;;;;21.41;28.84;98204.34;5034035;28;1033;-76
2023/05/08 12:31:35;;;;;;;;;;;;;;;21.08;29.19;98188.00;5001549;28;1397;-76
2023/05/08 12:34:04;;;;;;;;;;;;;;;21.49;28.57;98188.78;5017173;28;977;-76
2023/05/08 12:36:33;;;;;;;;;;;;;;;21.26;29.00;98190.47;5033707;28;1975;-76
2023/05/08 12:39:08;;;;;;;;;;;;;;;21.70;28.64;98205.25;5017181;28;1215;-76
2023/05/08 12:41:34;;;;;;;;;;;;;;;21.85;28.22;98205.72;5033758;28;1340;-76
2023/05/08 12:44:00;;;;;;;;;;;;;;;21.85;27.90;98202.88;5000928;28;1136;-76
2023/05/08 12:46:26;;;;;;;;;;;;;;;21.77;28.11;98199.44;5033893;28;984;-76
2023/05/08 12:49:00;;;;;;;;;;;;;;;21.57;28.31;98202.34;5017210;28;988;-75
2023/05/08 12:51:28;;;;;;;;;;;;;;;21.39;28.58;98195.47;5033935;28;951;-76
2023/05/08 12:53:54;;;;;;;;;;;;;;;21.21;28.73;98195.84;5017092;28;979;-76
2023/05/08 12:56:20;;;;;;;;;;;;;;;21.67;28.23;98200.50;5052979;28;1257;-76
2023/05/08 12:58:46;;;;;;;;;;;;;;;21.19;29.10;98192.66;5036816;28;1902;-75
2023/05/08 13:01:12;;;;;;;;;;;;;;;21.43;29.05;98199.03;5091845;28;945;-76